Latest Weather Observations for Barimunya

IDW60801

Issued at 6:03 pm WST Friday 24 February 2017 (issued every 30 minutes, with the page automatically refreshed every 10 minutes)

About weather observations | Map of weather stations | Latest weather observations for WA | Other Formats
Station Details ID: 505053 Name: BARIMUNYA Lat: -22.67 Lon: 119.16 Height: 629.17 m
Data from the previous 72 hours. | See also: Recent months for locations in Western Australia
Date/Time
WST
Temp
°C
App
Temp
°C
Dew
Point
°C
Rel
Hum
%
Delta-T
°C
Wind Press
QNH
hPa
Press
MSL
hPa
Rain since
9am
mm
Dir  Spd
km/h
Gust
km/h
Spd
kts
Gust
kts
24/06:00pm 34.3 31.6 8.8 21 14.8 E 13 19 7 10 1015.1 1009.7 0.0
24/05:30pm 35.2 30.6 8.1 19 15.6 E 22 30 12 16 1015.0 1009.6 0.0
24/05:00pm 36.5 33.3 9.9 20 15.9 ENE 17 26 9 14 1014.9 1009.5 0.0
24/04:30pm 36.4 34.5 10.6 21 15.5 SE 11 26 6 14 1014.8 1009.4 0.0
24/04:00pm 36.9 33.1 11.0 21 15.7 ESE 22 30 12 16 1014.9 1009.5 0.0
24/03:30pm 36.6 32.8 9.2 19 16.2 ESE 19 28 10 15 1015.1 1009.7 0.0
24/03:00pm 37.0 33.3 9.6 19 16.3 ESE 19 28 10 15 1015.3 1010.0 0.0
24/02:30pm 36.2 33.3 9.7 20 15.7 E 15 28 8 15 1015.8 1010.4 0.0
24/02:00pm 36.1 32.2 9.6 20 15.7 ESE 20 28 11 15 1016.1 1010.7 0.0
24/01:30pm 35.8 32.1 10.1 21 15.3 SE 20 32 11 17 1016.5 1011.1 0.0
24/01:00pm 35.1 31.6 10.2 22 14.8 SE 19 26 10 14 1016.9 1011.6 0.0
24/12:30pm 34.4 30.9 10.3 23 14.3 SE 19 28 10 15 1017.4 1012.0 0.0
24/12:00pm 33.8 30.7 10.4 24 13.9 SE 17 30 9 16 1017.9 1012.5 0.0
24/11:30am 32.9 29.3 9.7 24 13.6 ESE 19 26 10 14 1018.2 1012.9 0.0
24/11:00am 32.6 28.9 10.0 25 13.3 SE 20 32 11 17 1018.6 1013.3 0.0
24/10:30am 31.9 28.0 9.4 25 13.1 SE 20 30 11 16 1019.1 1013.7 0.0
24/10:00am 31.1 27.2 9.3 26 12.6 ESE 20 28 11 15 1019.6 1014.3 0.0
24/09:30am 30.6 25.8 8.9 26 12.4 SE 24 30 13 16 1019.8 1014.5 0.0
24/09:00am 29.5 24.2 8.5 27 11.9 SE 26 33 14 18 1019.9 1014.6 0.0
24/08:30am 28.6 22.9 8.3 28 11.4 SE 28 35 15 19 1019.9 1014.6 0.0
24/08:00am 27.9 22.5 8.2 29 11.0 SE 26 32 14 17 1019.9 1014.6 0.0
24/07:30am 27.2 22.6 8.1 30 10.6 SE 22 30 12 16 1019.9 1014.6 0.0
24/07:00am 26.4 21.2 7.4 30 10.4 SE 24 35 13 19 1019.6 1014.3 0.0
24/06:30am 25.7 21.4 6.8 30 10.2 SE 19 24 10 13 1019.3 1013.9 0.0
24/06:00am 25.5 21.0 6.2 29 10.3 SE 19 24 10 13 1019.2 1013.8 0.0
24/05:30am 25.5 21.3 5.7 28 10.5 SE 17 22 9 12 1018.9 1013.6 0.0
24/05:00am 25.9 21.5 4.9 26 10.9 SE 17 24 9 13 1018.8 1013.5 0.0
24/04:30am 25.9 21.4 4.4 25 11.1 SE 17 24 9 13 1018.4 1013.1 0.0
24/04:00am 26.1 21.7 4.6 25 11.2 SE 17 20 9 11 1018.2 1012.9 0.0
24/03:30am 26.6 22.0 3.8 23 11.7 SE 17 22 9 12 1018.0 1012.6 0.0
24/03:00am 26.4 22.3 4.2 24 11.5 SE 15 20 8 11 1017.9 1012.5 0.0
24/02:30am 26.6 22.5 4.4 24 11.5 SE 15 17 8 9 1017.9 1012.5 0.0
24/02:00am 26.8 23.0 4.0 23 11.8 SE 13 17 7 9 1017.9 1012.5 0.0
24/01:30am 27.9 22.8 2.9 20 12.8 ESE 19 26 10 14 1018.1 1012.7 0.0
24/01:00am 28.1 23.2 2.3 19 13.0 SE 17 20 9 11 1018.3 1013.0 0.0
24/12:30am 28.7 23.4 2.1 18 13.5 ESE 19 26 10 14 1018.3 1013.0 0.0
24/12:00am 28.9 24.0 2.2 18 13.5 ESE 17 20 9 11 1018.5 1013.2 0.0
 
Date/Time
WST
Temp
°C
App
Temp
°C
Dew
Point
°C
Rel
Hum
%
Delta-T
°C
Wind Press
QNH
hPa
Press
MSL
hPa
Rain since
9am
mm
Dir  Spd
km/h
Gust
km/h
Spd
kts
Gust
kts
23/11:30pm 29.1 24.9 3.9 20 13.2 ESE 15 22 8 12 1018.6 1013.3 0.0
23/11:00pm 29.5 25.0 4.2 20 13.3 ESE 17 20 9 11 1018.6 1013.3 0.0
23/10:30pm 29.3 25.8 5.4 22 12.8 ESE 13 17 7 9 1018.6 1013.3 0.0
23/10:00pm 28.6 26.4 7.8 27 11.6 ESE 9 11 5 6 1018.7 1013.4 0.0
23/09:30pm 29.5 27.2 7.4 25 12.3 E 9 11 5 6 1018.6 1013.3 0.0
23/09:00pm 29.5 27.3 8.0 26 12.0 E 9 13 5 7 1018.4 1013.1 0.0
23/08:30pm 29.5 28.2 11.1 32 10.9 E 9 11 5 6 1018.2 1012.9 0.0
23/08:00pm 30.6 29.6 11.1 30 11.5 E 7 11 4 6 1017.9 1012.5 0.0
23/07:30pm 30.8 29.7 10.7 29 11.8 ENE 7 9 4 5 1017.5 1012.1 0.0
23/07:00pm 31.3 30.2 10.6 28 12.2 ENE 7 9 4 5 1017.0 1011.7 0.0
23/06:30pm 32.5 31.4 10.5 26 13.0 E 7 9 4 5 1016.6 1011.2 0.0
23/06:00pm 33.9 31.5 8.5 21 14.7 ESE 11 15 6 8 1016.3 1010.9 0.0
23/05:30pm 34.3 31.6 8.8 21 14.8 ESE 13 20 7 11 1016.0 1010.6 0.0
23/05:00pm 34.5 31.6 9.7 22 14.6 SE 15 22 8 12 1015.5 1010.2 0.0
23/04:30pm 34.6 31.4 8.4 20 15.2 ESE 15 24 8 13 1015.4 1010.1 0.0
23/04:00pm 34.5 31.2 9.7 22 14.6 SE 17 26 9 14 1015.3 1010.0 0.0
23/03:30pm 34.1 31.3 8.7 21 14.7 ESE 13 24 7 13 1015.8 1010.4 0.0
23/03:00pm 34.0 31.0 9.3 22 14.4 SE 15 28 8 15 1016.0 1010.6 0.0
23/02:30pm 34.1 32.4 10.0 23 14.2 SE 9 15 5 8 1016.2 1010.8 0.0
23/02:00pm 34.0 31.6 9.9 23 14.2 ESE 13 20 7 11 1016.7 1011.4 0.0
23/01:30pm 33.2 30.4 9.9 24 13.7 ESE 15 19 8 10 1017.0 1011.7 0.0
23/01:00pm 32.6 30.0 9.4 24 13.5 E 13 22 7 12 1017.5 1012.1 0.0
23/12:30pm 32.7 30.3 10.1 25 13.3 E 13 24 7 13 1017.9 1012.5 0.0
23/12:00pm 31.9 28.9 9.4 25 13.0 ENE 15 22 8 12 1018.2 1012.9 0.0
23/11:30am 30.9 27.0 8.6 25 12.7 ESE 19 22 10 12 1018.5 1013.2 0.0
23/11:00am 30.4 26.3 8.7 26 12.3 E 20 26 11 14 1018.8 1013.5 0.0
23/10:30am 29.7 25.9 7.6 25 12.3 E 17 24 9 13 1019.1 1013.7 0.0
23/10:00am 28.9 24.7 7.5 26 11.9 E 19 26 10 14 1019.4 1014.0 0.0
23/09:30am 27.8 24.0 7.6 28 11.2 E 17 22 9 12 1019.5 1014.1 0.0
23/09:00am 27.0 21.5 7.5 29 10.7 E 26 35 14 19 1019.6 1014.3 0.0
23/08:30am 26.7 21.4 6.7 28 10.8 ESE 24 32 13 17 1019.5 1014.1 0.0
23/08:00am 26.7 21.0 6.7 28 10.8 ESE 26 41 14 22 1019.3 1013.9 0.0
23/07:30am 25.5 21.2 7.1 31 10.0 ESE 19 26 10 14 1018.8 1013.5 0.0
23/07:00am 24.9 21.0 7.1 32 9.6 ESE 17 24 9 13 1018.5 1013.2 0.0
23/06:30am 24.7 20.9 7.4 33 9.4 ESE 17 20 9 11 1018.0 1012.6 0.0
23/06:00am 24.1 20.7 7.7 35 8.9 SE 15 20 8 11 1017.6 1012.2 0.0
23/05:37am 24.5 21.1 7.6 34 9.2 ESE 15 20 8 11 1017.4 1012.0 0.0
23/05:30am 24.5 21.1 7.6 34 9.2 ESE 15 20 8 11 1017.2 1011.9 0.0
23/05:20am 24.7 21.0 7.8 34 9.2 ESE 17 22 9 12 1017.1 1011.8 0.0
23/05:00am 25.0 22.0 9.3 37 8.8 ESE 15 22 8 12 1016.9 1011.6 0.0
23/04:30am 25.6 21.9 9.4 36 9.1 ESE 19 26 10 14 1016.6 1011.2 0.0
23/04:00am 26.2 21.8 9.1 34 9.6 E 22 30 12 16 1016.2 1010.8 0.0
23/03:30am 26.6 22.8 9.9 35 9.5 E 20 30 11 16 1016.0 1010.6 0.0
23/03:00am 26.7 23.1 10.4 36 9.4 ESE 20 26 11 14 1015.9 1010.5 0.0
23/02:30am 27.0 23.2 8.9 32 10.2 ESE 19 24 10 13 1015.8 1010.4 0.0
23/02:00am 26.9 24.8 12.5 40 8.6 ESE 15 22 8 12 1015.8 1010.4 0.0
23/01:30am 26.5 27.8 18.4 61 5.3 SE 9 11 5 6 1015.9 1010.5 0.0
23/01:00am 26.0 29.2 20.6 72 3.6 E 4 9 2 5 1015.8 1010.4 0.0
23/12:30am 27.1 28.7 19.2 62 5.2 E 9 9 5 5 1015.9 1010.5 0.0
23/12:00am 27.0 31.4 21.3 71 3.9 CALM 0 0 0 0 1016.1 1010.7 0.0
 
Date/Time
WST
Temp
°C
App
Temp
°C
Dew
Point
°C
Rel
Hum
%
Delta-T
°C
Wind Press
QNH
hPa
Press
MSL
hPa
Rain since
9am
mm
Dir  Spd
km/h
Gust
km/h
Spd
kts
Gust
kts
22/11:30pm 27.4 31.4 20.5 66 4.6 CALM 0 0 0 0 1016.3 1010.9 0.0
22/11:00pm 27.7 31.3 19.8 62 5.3 CALM 0 0 0 0 1016.5 1011.1 0.0
22/10:30pm 28.3 30.1 18.7 56 6.3 E 7 9 4 5 1016.8 1011.5 0.0
22/10:00pm 28.5 31.5 19.2 57 6.2 SW 2 7 1 4 1016.8 1011.5 0.0
22/09:30pm 28.6 30.6 19.2 56 6.2 NE 7 13 4 7 1016.6 1011.2 0.0
22/09:00pm 30.3 31.7 17.4 46 8.4 NE 6 9 3 5 1016.3 1010.9 0.0
22/08:30pm 30.0 31.6 17.8 48 8.0 NE 6 7 3 4 1016.0 1010.6 0.0
22/08:00pm 30.7 31.2 17.4 45 8.7 NE 11 13 6 7 1015.7 1010.3 0.0
22/07:30pm 31.9 32.5 15.4 37 10.5 S 6 7 3 4 1015.3 1010.0 0.0
22/07:00pm 32.0 32.9 16.7 40 9.9 S 7 7 4 4 1014.8 1009.4 0.0
22/06:30pm 33.1 32.9 13.7 31 12.1 S 7 9 4 5 1014.4 1009.0 0.0
22/06:00pm 34.0 33.4 13.5 29 12.8 SSE 9 13 5 7 1013.8 1008.5 0.0
22/05:30pm 34.1 32.6 11.9 26 13.5 S 11 15 6 8 1013.6 1008.2 0.0
22/05:00pm 34.4 32.6 12.1 26 13.6 S 13 24 7 13 1013.2 1007.8 0.0
22/04:30pm 34.6 33.4 11.7 25 13.9 SSW 9 17 5 9 1013.3 1007.9 0.0
22/04:00pm 34.4 33.7 12.1 26 13.6 NE 7 15 4 8 1013.6 1008.2 0.0
22/03:30pm 34.2 32.5 12.5 27 13.3 S 13 19 7 10 1014.0 1008.6 0.0
22/03:00pm 33.9 33.6 12.8 28 13.0 SE 6 15 3 8 1014.2 1008.8 0.0
22/02:30pm 33.8 32.9 13.8 30 12.5 SW 11 19 6 10 1014.5 1009.1 0.0
22/02:00pm 33.5 32.1 13.5 29 12.4 SSE 13 19 7 10 1014.8 1009.4 0.0
22/01:30pm 32.8 31.2 12.9 29 12.2 SE 13 20 7 11 1015.1 1009.7 0.0
22/01:00pm 32.6 31.8 12.8 30 12.1 SSE 9 19 5 10 1015.5 1010.2 0.0
22/12:30pm 32.2 31.6 13.4 32 11.6 E 9 19 5 10 1016.0 1010.6 0.0
22/12:00pm 31.6 29.6 11.4 29 12.1 SE 13 19 7 10 1016.2 1010.8 0.0
22/11:30am 31.4 29.2 12.2 30 11.6 SE 15 24 8 13 1016.5 1011.1 0.0
22/11:00am 30.3 27.2 10.3 29 11.7 ESE 17 26 9 14 1017.0 1011.7 0.0
22/10:30am 29.7 26.3 9.3 28 11.7 ESE 17 24 9 13 1017.0 1011.7 0.0
22/10:00am 29.2 26.1 8.8 28 11.6 SE 15 24 8 13 1017.4 1012.0 0.0
22/09:30am 28.1 24.0 7.9 28 11.2 SE 19 24 10 13 1017.6 1012.2 0.0
22/09:00am 27.4 23.3 8.8 31 10.5 SE 20 28 11 15 1017.5 1012.1 -
22/08:30am 26.0 21.7 8.0 32 9.9 SE 20 28 11 15 1017.4 1012.0 -
22/08:00am 25.7 21.6 8.7 34 9.5 SSE 20 26 11 14 1017.1 1011.8 -
22/07:30am 25.3 21.2 8.7 35 9.2 SSE 20 24 11 13 1016.9 1011.6 -
22/07:00am 25.7 21.7 9.1 35 9.3 SSE 20 24 11 13 1016.6 1011.2 -
22/06:30am 25.3 23.2 14.7 51 6.5 S 19 26 10 14 1016.1 1010.7 -
22/06:00am 25.7 25.5 17.6 61 5.2 SSE 15 20 8 11 1015.8 1010.4 -
22/05:30am 25.6 27.3 18.5 65 4.6 SSE 7 9 4 5 1015.5 1010.2 -
22/05:00am 26.0 26.8 18.2 62 5.1 SSW 11 13 6 7 1015.2 1009.9 -
22/04:30am 26.3 26.5 17.6 58 5.6 SSW 13 17 7 9 1014.9 1009.5 -
22/04:00am 26.4 26.9 18.3 61 5.3 S 13 17 7 9 1014.6 1009.2 -
22/03:30am 26.5 28.2 18.4 61 5.3 S 7 9 4 5 1014.3 1008.9 -
22/03:00am 26.8 27.6 18.1 59 5.7 S 11 15 6 8 1013.8 1008.5 -
22/02:30am 27.0 27.5 18.3 59 5.7 S 13 17 7 9 1013.7 1008.4 -
22/02:00am 27.4 27.8 18.1 57 6.1 SSW 13 17 7 9 1013.6 1008.2 -
22/01:30am 27.4 28.4 18.7 59 5.7 SSW 11 15 6 8 1013.8 1008.5 -
22/01:00am 27.1 28.2 18.9 61 5.4 SSW 11 13 6 7 1013.8 1008.5 -
22/12:30am 26.7 28.1 19.6 65 4.7 WSW 11 11 6 6 1014.0 1008.6 -
 
Date/Time
WST
Temp
°C
App
Temp
°C
Dew
Point
°C
Rel
Hum
%
Delta-T
°C
Wind Press
QNH
hPa
Press
MSL
hPa
Rain since
9am
mm
Dir  Spd
km/h
Gust
km/h
Spd
kts
Gust
kts
21/11:30pm 27.4 30.4 20.0 64 4.9 W 4 7 2 4 1014.4 1009.0 4.0
21/11:00pm 27.7 29.9 19.2 60 5.6 WNW 6 9 3 5 1014.5 1009.1 4.0
21/10:30pm 28.2 30.5 19.4 59 5.8 W 6 7 3 4 1014.6 1009.2 4.0
21/10:00pm 28.1 30.9 20.4 63 5.2 WNW 6 9 3 5 1014.6 1009.2 4.0
21/09:30pm 28.2 31.1 20.7 63 5.1 NNW 6 7 3 4 1014.5 1009.1 4.0
21/09:00pm 28.3 32.9 21.8 68 4.5 CALM 0 0 0 0 1014.4 1009.0 4.0
21/08:30pm 28.4 32.3 20.4 62 5.4 CALM 0 0 0 0 1014.3 1008.9 4.0
21/08:00pm 27.5 30.6 19.6 62 5.3 NNW 2 6 1 3 1014.1 1008.7 4.0
21/07:30pm 27.6 28.2 18.6 58 5.9 E 13 17 7 9 1013.6 1008.2 4.0
21/07:00pm 26.6 23.6 18.7 62 5.2 SE 32 39 17 21 1013.4 1008.0 4.0
21/06:30pm 26.4 25.7 19.5 66 4.6 SE 22 33 12 18 1013.1 1007.7 4.0
21/06:25pm 27.5 26.7 19.3 61 5.4 E 22 33 12 18 1012.9 1007.5 3.8
21/06:06pm 28.3 25.8 16.2 47 7.7 SW 24 43 13 23 1012.7 1007.3 2.2

Other Formats:

Comma delimited format used in spreadsheet applications
http://www.bom.gov.au/fwo/IDW60801/IDW60801.99313.axf

JavaScript Object Notation format (JSON) in row-major order
http://www.bom.gov.au/fwo/IDW60801/IDW60801.99313.json